首页
METAR-TAF:

METAR-TAF

机场 :

科托卡国际机场

阿克拉, 加纳

纬度: 05-36N, 经度: 000-10W, 海拔: 68米

当前天气观测

该预报发布于41分钟前的23:00 UTC
风速3节,风向多变
温度 25°C
湿度 94%
气压 1015 hPa
能见度10公里或以上
少量云层高于700英尺

METAR: DGAA 162300Z VRB03KT 9999 FEW007 25/24 Q1015 NOSIG

时间: 23:41 (23:41 UTC)

预报

该预报发布于41分钟前的23:00 UTC
预报有效从17日的 00点(UTC)到 18日的 06点(UTC)
风速5节,风向西
能见度10公里或以上
散云层高于1000英尺
几率 40%
从 17日的 06点(UTC)到 17日的 09点(UTC)
能見度: 7000
多云层高于1200英尺
成为
从 17日的 10点(UTC)到 17日的 12点(UTC)
风速15节,风向
散云层高于2800英尺
成为
从 17日的 20点(UTC)到 17日的 22点(UTC)
多云层高于1400英尺

TAF: DGAA 162300Z 1700/1806 27005KT 9999 SCT010 PROB40 1706/1709 7000 BKN012 BECMG 1710/1712 18015KT SCT028 BECMG 1720/1722 BKN014

超过4000个机场的气象观测和天气预报(METAR&TAF报告)。

可查询的气象台以黄色和红色小点在地图上表示。

将鼠标移到小点上方,可查看气象台名称。

然后点击查看天气观测和预报。

如需切换地图:点击带黑十字的绿色按钮放大地图;点击带横线的绿色按钮缩小地图;或者点击绿色箭头查看邻近地区的地图。


METAR-TAF: